Time;durP1;ratioP1;P1;durP2;ratioP2;P2;SDS_P1;SDS_P2;PMS_P1;PMS_P2;Temp;Humidity;BMP_temperature;BMP_pressure;BME280_temperature;BME280_humidity;BME280_pressure;Samples;Min_cycle;Max_cycle;Signal;HPM_P1;HPM_P2
2022/06/16 00:01:30;;;;;;;4.60;2.80;;;20.20;95.20;;;;;;5010784;28;20206;-76
2022/06/16 00:03:57;;;;;;;3.47;2.50;;;20.20;95.40;;;;;;5009943;28;20731;-76
2022/06/16 00:06:24;;;;;;;2.70;2.33;;;20.10;95.70;;;;;;5010348;28;20213;-76
2022/06/16 00:08:50;;;;;;;2.57;2.37;;;20.10;95.80;;;;;;5009855;28;20316;-77
2022/06/16 00:11:17;;;;;;;3.60;2.70;;;20.10;95.90;;;;;;5010262;28;20300;-77
2022/06/16 00:13:46;;;;;;;2.97;2.47;;;20.10;95.90;;;;;;5010156;28;20288;-77
2022/06/16 00:16:13;;;;;;;3.40;2.30;;;20.10;95.90;;;;;;5006903;28;20210;-77
2022/06/16 00:18:41;;;;;;;4.50;2.37;;;20.00;96.00;;;;;;4990706;28;20297;-77
2022/06/16 00:21:15;;;;;;;2.47;2.27;;;20.00;96.10;;;;;;4990252;28;20728;-76
2022/06/16 00:23:44;;;;;;;2.60;2.40;;;20.00;96.00;;;;;;4990273;28;20583;-77
2022/06/16 00:26:16;;;;;;;3.80;2.57;;;19.90;96.00;;;;;;4999513;28;20692;-77
2022/06/16 00:28:43;;;;;;;2.87;2.57;;;19.90;96.10;;;;;;5010084;28;20641;-77
2022/06/16 00:31:19;;;;;;;3.00;2.67;;;19.90;96.20;;;;;;5009452;28;20300;-77
2022/06/16 00:33:47;;;;;;;2.70;2.50;;;19.80;96.50;;;;;;5010193;28;20340;-77
2022/06/16 00:36:14;;;;;;;3.73;2.70;;;19.70;96.10;;;;;;5009796;28;20296;-77
2022/06/16 00:38:42;;;;;;;2.27;1.97;;;19.70;96.00;;;;;;5009655;28;20292;-77
2022/06/16 00:41:18;;;;;;;3.50;2.40;;;19.60;96.00;;;;;;5009526;28;20743;-77
2022/06/16 00:43:44;;;;;;;3.50;2.33;;;19.60;96.20;;;;;;5009269;28;20319;-77
2022/06/16 00:46:18;;;;;;;2.30;2.10;;;19.60;96.20;;;;;;5009707;28;20241;-77
2022/06/16 00:48:48;;;;;;;4.33;2.43;;;19.60;96.30;;;;;;5009567;28;20249;-77
2022/06/16 00:51:20;;;;;;;5.40;2.47;;;19.60;96.30;;;;;;5009521;28;20293;-76
2022/06/16 00:53:48;;;;;;;2.50;2.00;;;19.50;96.40;;;;;;5009175;28;20221;-76
2022/06/16 00:56:18;;;;;;;3.67;2.20;;;19.40;96.60;;;;;;5009456;28;20212;-76
2022/06/16 00:58:48;;;;;;;2.63;2.20;;;19.30;96.70;;;;;;5009331;28;20198;-76
2022/06/16 01:01:19;;;;;;;2.77;2.37;;;19.40;96.90;;;;;;4989792;28;20364;-76
2022/06/16 01:06:31;;;;;;;4.00;2.37;;;19.30;97.20;;;;;;5009359;28;20209;-76
2022/06/16 01:09:03;;;;;;;2.53;2.03;;;19.30;97.30;;;;;;5008603;28;20244;-76
2022/06/16 01:14:46;;;;;;;2.50;2.30;;;19.20;97.60;;;;;;4995997;28;20213;-76
2022/06/16 01:17:28;;;;;;;3.93;2.33;;;19.20;97.70;;;;;;4989300;28;20217;-76
2022/06/16 01:20:05;;;;;;;2.60;2.40;;;19.20;97.90;;;;;;4989243;28;20316;-76
2022/06/16 01:22:52;;;;;;;4.83;2.60;;;19.10;98.00;;;;;;4999588;28;20212;-76
2022/06/16 01:25:27;;;;;;;2.40;2.20;;;19.10;98.20;;;;;;5008750;28;20293;-76
2022/06/16 01:28:14;;;;;;;4.77;2.37;;;19.10;98.30;;;;;;5008968;28;20652;-76
2022/06/16 01:30:53;;;;;;;2.97;2.50;;;19.00;98.40;;;;;;5008928;28;20198;-76
2022/06/16 01:33:25;;;;;;;3.80;2.53;;;19.00;98.60;;;;;;5008270;28;20288;-76
2022/06/16 01:35:57;;;;;;;2.97;2.77;;;19.00;98.70;;;;;;5009041;28;20676;-76
2022/06/16 01:38:30;;;;;;;5.17;2.53;;;18.90;98.80;;;;;;5008649;28;20288;-76
2022/06/16 01:41:14;;;;;;;3.07;2.80;;;18.90;99.00;;;;;;5008449;28;20862;-76
2022/06/16 01:43:47;;;;;;;2.93;2.73;;;18.80;99.20;;;;;;5008121;28;20348;-76
2022/06/16 01:46:19;;;;;;;3.83;3.07;;;18.70;99.40;;;;;;4994849;28;20300;-76
2022/06/16 01:48:51;;;;;;;3.90;2.77;;;18.70;99.60;;;;;;4988763;28;20672;-76
2022/06/16 01:51:22;;;;;;;4.17;3.03;;;18.70;99.80;;;;;;4989059;28;20304;-75
2022/06/16 01:53:54;;;;;;;3.60;2.80;;;18.70;99.90;;;;;;4988818;28;20212;-75
2022/06/16 01:56:25;;;;;;;3.90;2.83;;;18.60;99.90;;;;;;5000431;28;20201;-75
2022/06/16 01:58:59;;;;;;;3.03;2.70;;;18.60;99.90;;;;;;5008135;28;20209;-76
2022/06/16 02:01:31;;;;;;;3.60;2.53;;;18.50;99.90;;;;;;5008754;28;20225;-76
2022/06/16 02:04:07;;;;;;;2.77;2.57;;;18.50;99.90;;;;;;5003930;28;20220;-76
2022/06/16 02:06:37;;;;;;;4.30;2.33;;;18.50;99.90;;;;;;5001430;28;20742;-77
2022/06/16 02:09:08;;;;;;;2.97;2.77;;;18.50;99.90;;;;;;5007784;28;20854;-77
2022/06/16 02:11:37;;;;;;;3.20;2.60;;;18.50;99.90;;;;;;5008141;28;20731;-77
2022/06/16 02:14:10;;;;;;;8.13;2.70;;;18.60;99.90;;;;;;5008185;28;20205;-76
2022/06/16 02:16:39;;;;;;;3.10;2.67;;;18.60;99.90;;;;;;4997934;28;20201;-74
2022/06/16 02:19:10;;;;;;;5.17;3.10;;;18.50;99.90;;;;;;5007826;28;20213;-77
2022/06/16 02:21:38;;;;;;;2.90;2.60;;;18.50;99.90;;;;;;5008588;28;20277;-86
2022/06/16 02:24:08;;;;;;;3.40;2.97;;;18.50;99.90;;;;;;5007816;28;20217;-74
2022/06/16 02:26:36;;;;;;;2.90;2.70;;;18.50;99.90;;;;;;5008063;28;20205;-74
2022/06/16 02:29:22;;;;;;;5.37;2.73;;;18.50;99.90;;;;;;5005045;28;20297;-75
2022/06/16 02:31:58;;;;;;;5.27;2.70;;;18.40;99.90;;;;;;5005685;28;20236;-74
2022/06/16 02:34:35;;;;;;;3.70;3.13;;;18.40;99.90;;;;;;5006120;28;20197;-74
2022/06/16 02:37:24;;;;;;;6.07;2.87;;;18.40;99.90;;;;;;5006093;28;20288;-74
2022/06/16 02:40:06;;;;;;;3.00;2.70;;;18.30;99.90;;;;;;4992082;28;20316;-74
2022/06/16 02:42:37;;;;;;;5.33;3.27;;;18.20;99.90;;;;;;5006254;28;20633;-74
2022/06/16 02:45:14;;;;;;;4.23;2.67;;;18.20;99.90;;;;;;5001458;28;20686;-74
2022/06/16 02:47:54;;;;;;;3.77;3.03;;;18.20;99.90;;;;;;4986523;28;20296;-77
2022/06/16 02:50:40;;;;;;;3.33;3.03;;;18.20;99.90;;;;;;4992967;28;20196;-77
2022/06/16 02:53:17;;;;;;;3.47;2.90;;;18.20;99.90;;;;;;5005042;28;20307;-77
2022/06/16 02:55:48;;;;;;;3.20;2.60;;;18.20;99.90;;;;;;4993058;28;20673;-77
2022/06/16 02:58:18;;;;;;;2.90;2.70;;;18.30;99.90;;;;;;4986229;28;20233;-77
2022/06/16 03:00:48;;;;;;;5.40;3.40;;;18.30;99.90;;;;;;4994990;28;20245;-76
2022/06/16 03:03:25;;;;;;;3.60;3.23;;;18.20;99.90;;;;;;5005160;28;20202;-76
2022/06/16 03:05:53;;;;;;;3.33;2.63;;;18.20;99.90;;;;;;5005654;28;20566;-76
2022/06/16 03:08:21;;;;;;;4.40;2.73;;;18.20;99.90;;;;;;5006228;28;20228;-78
2022/06/16 03:10:54;;;;;;;4.07;2.90;;;18.20;99.90;;;;;;5011079;28;20572;-73
2022/06/16 03:13:23;;;;;;;4.80;3.07;;;18.20;99.90;;;;;;4990158;28;20253;-74
2022/06/16 03:15:52;;;;;;;4.60;3.10;;;18.20;99.90;;;;;;4997055;28;20206;-73
2022/06/16 03:18:20;;;;;;;3.53;3.23;;;18.20;99.90;;;;;;4991005;28;20237;-73
2022/06/16 03:20:49;;;;;;;5.03;3.30;;;18.20;99.90;;;;;;4991506;28;20291;-74
2022/06/16 03:23:16;;;;;;;4.50;3.50;;;18.20;99.90;;;;;;5007313;28;20638;-73
2022/06/16 03:25:43;;;;;;;4.57;3.10;;;18.20;99.90;;;;;;5010821;28;20201;-74
2022/06/16 03:28:11;;;;;;;6.23;3.17;;;18.20;99.90;;;;;;5010672;28;20209;-73
2022/06/16 03:30:38;;;;;;;3.80;3.10;;;18.10;99.90;;;;;;5010255;28;20211;-74
2022/06/16 03:33:07;;;;;;;6.30;3.27;;;18.10;99.90;;;;;;5010389;28;20665;-73
2022/06/16 03:35:34;;;;;;;4.40;3.03;;;18.10;99.90;;;;;;5010710;28;20220;-73
2022/06/16 03:38:03;;;;;;;4.33;3.17;;;18.10;99.90;;;;;;5009958;28;20210;-73
2022/06/16 03:40:30;;;;;;;4.27;3.43;;;18.00;99.90;;;;;;5010617;28;20225;-73
2022/06/16 03:42:56;;;;;;;4.93;3.20;;;18.00;99.90;;;;;;5010363;28;20220;-73
2022/06/16 03:45:23;;;;;;;6.77;3.60;;;18.10;99.90;;;;;;5010246;28;20690;-73
2022/06/16 03:47:50;;;;;;;4.57;3.47;;;18.10;99.90;;;;;;5010588;28;20556;-73
2022/06/16 03:50:19;;;;;;;5.20;3.60;;;18.00;99.90;;;;;;5010511;28;20219;-74
2022/06/16 03:52:46;;;;;;;5.43;3.90;;;18.00;99.90;;;;;;5010520;28;20209;-73
2022/06/16 03:55:14;;;;;;;5.67;3.63;;;18.10;99.90;;;;;;5009902;28;20669;-73
2022/06/16 03:57:41;;;;;;;3.57;3.27;;;18.10;99.90;;;;;;4996140;28;20671;-73
2022/06/16 04:00:09;;;;;;;6.50;3.43;;;18.10;99.90;;;;;;4990461;28;20248;-74
2022/06/16 04:02:36;;;;;;;5.20;3.20;;;18.10;99.90;;;;;;4997809;28;20202;-73
2022/06/16 04:05:03;;;;;;;3.40;3.10;;;18.10;99.90;;;;;;5010046;28;20213;-73
2022/06/16 04:07:30;;;;;;;3.40;2.93;;;18.10;99.90;;;;;;5010245;28;20217;-73
2022/06/16 04:10:00;;;;;;;3.53;3.17;;;18.20;99.90;;;;;;5009456;28;20794;-73
2022/06/16 04:12:28;;;;;;;4.20;3.73;;;18.10;99.90;;;;;;5010154;28;20352;-74
2022/06/16 04:14:55;;;;;;;4.00;3.17;;;18.10;99.90;;;;;;5010057;28;20217;-73
2022/06/16 04:17:24;;;;;;;4.57;3.70;;;18.10;99.90;;;;;;5009719;28;20209;-73
2022/06/16 04:20:12;;;;;;;3.50;3.20;;;18.10;99.90;;;;;;5009410;28;20564;-73
2022/06/16 04:22:40;;;;;;;3.70;2.77;;;18.10;99.90;;;;;;5009997;28;20204;-73
2022/06/16 04:25:09;;;;;;;4.97;2.97;;;18.10;99.90;;;;;;5009569;28;20205;-73
2022/06/16 04:27:37;;;;;;;5.30;3.23;;;18.10;99.90;;;;;;5009800;28;20732;-73
2022/06/16 04:30:07;;;;;;;4.33;3.43;;;18.10;99.90;;;;;;5009634;28;20540;-73
2022/06/16 04:32:34;;;;;;;3.67;3.30;;;18.10;99.90;;;;;;5002493;28;20245;-73
2022/06/16 04:35:01;;;;;;;5.77;3.67;;;18.10;99.90;;;;;;4989996;28;20206;-73
2022/06/16 04:37:27;;;;;;;5.47;3.87;;;18.20;99.90;;;;;;4989915;28;20667;-73
2022/06/16 04:39:54;;;;;;;4.53;3.97;;;18.20;99.90;;;;;;4989634;28;20207;-74
2022/06/16 04:42:21;;;;;;;6.80;4.60;;;18.00;99.90;;;;;;4989432;28;20608;-73
2022/06/16 04:44:49;;;;;;;9.87;4.10;;;18.00;99.90;;;;;;4989470;28;20272;-74
2022/06/16 04:47:16;;;;;;;5.37;4.10;;;18.10;99.90;;;;;;4994541;28;20205;-73
2022/06/16 04:49:48;;;;;;;7.27;4.53;;;18.10;99.90;;;;;;5009385;28;20205;-73
2022/06/16 04:52:15;;;;;;;9.33;4.60;;;18.10;99.90;;;;;;5008544;28;20206;-73
2022/06/16 04:54:44;;;;;;;4.83;3.90;;;18.10;99.90;;;;;;4989411;28;20301;-73
2022/06/16 04:57:11;;;;;;;6.33;3.93;;;18.10;99.90;;;;;;4989568;28;20209;-74
2022/06/16 04:59:38;;;;;;;6.73;3.70;;;18.10;99.90;;;;;;4989161;28;20222;-73
2022/06/16 05:02:07;;;;;;;5.63;3.80;;;18.10;99.90;;;;;;4989095;28;20700;-73
2022/06/16 05:04:35;;;;;;;3.93;3.57;;;18.10;99.90;;;;;;4989282;28;20661;-73
2022/06/16 05:07:02;;;;;;;4.30;3.30;;;18.20;99.90;;;;;;4995235;28;20224;-73
2022/06/16 05:09:29;;;;;;;6.63;3.83;;;18.20;99.90;;;;;;5005529;28;20211;-73
2022/06/16 05:11:56;;;;;;;3.77;3.27;;;18.30;99.90;;;;;;5008842;28;20626;-74
2022/06/16 05:14:23;;;;;;;7.60;3.17;;;18.30;99.90;;;;;;5008874;28;20202;-73
2022/06/16 05:16:51;;;;;;;3.93;2.70;;;18.30;99.90;;;;;;5000461;28;20261;-73
2022/06/16 05:19:19;;;;;;;3.47;3.10;;;18.30;99.90;;;;;;4998283;28;20450;-73
2022/06/16 05:21:46;;;;;;;11.87;3.30;;;18.30;99.90;;;;;;5004547;28;20651;-74
2022/06/16 05:24:12;;;;;;;4.13;3.17;;;18.40;99.90;;;;;;4988615;28;20680;-73
2022/06/16 05:26:39;;;;;;;7.43;3.30;;;18.40;99.90;;;;;;4988940;28;20210;-73
2022/06/16 05:29:06;;;;;;;3.40;3.10;;;18.40;99.90;;;;;;4988719;28;20210;-73
2022/06/16 05:31:36;;;;;;;4.87;2.67;;;18.40;99.90;;;;;;4988390;28;20249;-73
2022/06/16 05:34:03;;;;;;;7.93;3.70;;;18.50;99.90;;;;;;4988484;28;20554;-73
2022/06/16 05:36:31;;;;;;;7.20;2.93;;;18.50;99.90;;;;;;4989146;28;20209;-73
2022/06/16 05:38:58;;;;;;;4.53;3.23;;;18.60;99.90;;;;;;4988640;28;20206;-73
2022/06/16 05:41:25;;;;;;;6.40;3.90;;;18.70;99.90;;;;;;4988764;28;20245;-73
2022/06/16 05:43:51;;;;;;;6.00;3.30;;;18.70;99.90;;;;;;4995799;28;20707;-73
2022/06/16 05:46:21;;;;;;;4.70;2.90;;;18.70;99.90;;;;;;5008427;28;20300;-73
2022/06/16 05:48:48;;;;;;;5.20;3.00;;;18.80;99.90;;;;;;5008379;28;20272;-73
2022/06/16 05:51:16;;;;;;;8.00;3.17;;;18.80;99.90;;;;;;5008202;28;20667;-73
2022/06/16 05:53:45;;;;;;;7.83;3.33;;;18.80;99.90;;;;;;5007622;28;20212;-73
2022/06/16 05:56:12;;;;;;;5.43;3.20;;;18.90;99.90;;;;;;5008127;28;20289;-74
2022/06/16 05:58:39;;;;;;;4.43;2.50;;;18.80;99.90;;;;;;5008202;28;20301;-73
2022/06/16 06:01:11;;;;;;;3.67;3.07;;;18.80;99.90;;;;;;5008155;28;20233;-73
2022/06/16 06:03:38;;;;;;;6.97;3.47;;;18.90;99.90;;;;;;5008292;28;20253;-73
2022/06/16 06:06:11;;;;;;;5.73;2.87;;;18.90;99.90;;;;;;5008021;28;20232;-73
2022/06/16 06:17:09;;;;;;;4.40;2.73;;;19.20;99.90;;;;;;4988339;28;20232;-73
2022/06/16 06:19:35;;;;;;;4.67;2.80;;;19.30;99.90;;;;;;4988598;28;20206;-73
2022/06/16 06:22:06;;;;;;;4.50;2.87;;;19.30;99.90;;;;;;4994878;28;20225;-73
2022/06/16 06:24:35;;;;;;;5.70;3.23;;;19.40;99.90;;;;;;5007468;28;20201;-73
2022/06/16 06:27:10;;;;;;;6.63;3.03;;;19.50;99.90;;;;;;5008135;28;20288;-73
2022/06/16 06:29:37;;;;;;;3.43;2.43;;;19.60;99.90;;;;;;5007974;28;20197;-73
2022/06/16 06:32:05;;;;;;;2.83;2.40;;;19.60;99.90;;;;;;5007567;28;20236;-73
2022/06/16 06:34:31;;;;;;;4.60;2.80;;;19.60;99.90;;;;;;5008131;28;20309;-73
2022/06/16 06:36:58;;;;;;;4.17;3.10;;;19.60;99.90;;;;;;5007729;28;20221;-73
2022/06/16 06:39:25;;;;;;;3.50;2.63;;;19.60;99.90;;;;;;5007263;28;20566;-73
2022/06/16 06:41:52;;;;;;;2.87;2.63;;;19.60;99.90;;;;;;5008595;28;20236;-73
2022/06/16 06:44:20;;;;;;;3.23;2.30;;;19.60;99.90;;;;;;5011108;28;20249;-73
2022/06/16 06:46:47;;;;;;;4.67;2.50;;;19.70;99.90;;;;;;4993558;28;20674;-73
2022/06/16 06:49:14;;;;;;;2.43;2.20;;;19.70;99.90;;;;;;4991999;28;20225;-73
2022/06/16 06:51:42;;;;;;;2.80;2.40;;;19.70;99.90;;;;;;5001160;28;20296;-74
2022/06/16 06:54:09;;;;;;;6.30;2.67;;;19.90;99.90;;;;;;5011196;28;20210;-73
2022/06/16 06:56:35;;;;;;;3.93;2.10;;;19.90;99.90;;;;;;5011291;28;20206;-73
2022/06/16 06:59:05;;;;;;;5.53;2.40;;;20.00;99.90;;;;;;5011159;28;20214;-73
2022/06/16 07:01:34;;;;;;;36.73;4.50;;;20.10;99.90;;;;;;5011532;28;20598;-73
2022/06/16 07:04:02;;;;;;;3.42;2.40;;;20.20;99.90;;;;;;5011375;28;20206;-73
2022/06/16 07:06:29;;;;;;;3.20;2.10;;;20.30;99.90;;;;;;5011374;28;20218;-73
2022/06/16 07:08:56;;;;;;;4.47;2.30;;;20.40;99.90;;;;;;5011061;28;20217;-73
2022/06/16 07:11:23;;;;;;;6.27;2.23;;;20.40;99.90;;;;;;5010897;28;20202;-73
2022/06/16 07:13:50;;;;;;;8.43;2.20;;;20.40;99.90;;;;;;5010717;28;20213;-73
2022/06/16 07:16:18;;;;;;;5.10;2.57;;;20.50;99.90;;;;;;4997038;28;20202;-73
2022/06/16 07:18:46;;;;;;;6.23;2.50;;;20.50;99.90;;;;;;4991490;28;20280;-73
2022/06/16 07:21:14;;;;;;;4.50;2.40;;;20.60;99.90;;;;;;4997464;28;20771;-73
2022/06/16 07:23:41;;;;;;;7.90;2.33;;;20.70;99.90;;;;;;4991043;28;20646;-73
2022/06/16 07:26:12;;;;;;;3.00;1.98;;;20.70;99.90;;;;;;4990870;28;20660;-73
2022/06/16 07:28:39;;;;;;;4.40;2.53;;;20.80;99.90;;;;;;4991381;28;20546;-73
2022/06/16 07:31:11;;;;;;;2.72;2.38;;;20.80;99.90;;;;;;4990754;28;20645;-73
2022/06/16 07:33:38;;;;;;;3.33;2.20;;;20.80;99.90;;;;;;4991277;28;20236;-73
2022/06/16 07:36:12;;;;;;;6.00;2.40;;;20.80;99.90;;;;;;4996117;28;20226;-73
2022/06/16 07:38:39;;;;;;;5.13;2.47;;;20.80;99.90;;;;;;5010273;28;20654;-73
2022/06/16 07:43:56;;;;;;;3.63;2.15;;;20.80;99.90;;;;;;5010042;28;20723;-73
2022/06/16 07:46:24;;;;;;;2.78;2.35;;;20.90;99.90;;;;;;4995656;28;20218;-73
2022/06/16 07:48:52;;;;;;;2.83;2.25;;;21.00;99.90;;;;;;5007474;28;20241;-73
2022/06/16 07:51:20;;;;;;;3.97;2.38;;;21.00;99.90;;;;;;5009924;28;20228;-73
2022/06/16 07:53:47;;;;;;;4.70;2.42;;;21.00;99.90;;;;;;5009425;28;20206;-73
2022/06/16 07:56:15;;;;;;;6.17;2.63;;;20.90;99.90;;;;;;5010317;28;20264;-73
2022/06/16 07:58:43;;;;;;;2.60;2.22;;;20.90;99.90;;;;;;5010206;28;20209;-74
2022/06/16 08:01:12;;;;;;;4.53;2.58;;;20.80;99.90;;;;;;5010101;28;20220;-73
2022/06/16 08:03:40;;;;;;;11.82;2.80;;;20.80;99.90;;;;;;5010300;28;20213;-73
2022/06/16 08:06:27;;;;;;;4.00;2.03;;;20.90;99.90;;;;;;5010047;28;20236;-73
2022/06/16 08:08:56;;;;;;;3.70;2.15;;;21.00;99.90;;;;;;5009532;28;20220;-73
2022/06/16 08:14:07;;;;;;;4.25;2.50;;;21.10;99.90;;;;;;5009614;28;20276;-73
2022/06/16 08:16:35;;;;;;;3.83;2.05;;;21.10;99.90;;;;;;4993372;28;20261;-73
2022/06/16 08:19:03;;;;;;;2.70;2.40;;;21.20;99.90;;;;;;5009614;28;20233;-73
2022/06/16 08:21:29;;;;;;;2.58;2.00;;;21.30;99.90;;;;;;5009962;28;20263;-73
2022/06/16 08:23:58;;;;;;;4.00;2.00;;;21.30;99.90;;;;;;5009626;28;20580;-73
2022/06/16 08:26:25;;;;;;;12.50;2.50;;;21.30;99.50;;;;;;5009873;28;20205;-73
2022/06/16 08:28:54;;;;;;;3.40;2.03;;;21.40;99.50;;;;;;5009500;28;20221;-73
2022/06/16 08:31:23;;;;;;;3.28;2.40;;;21.40;99.30;;;;;;5009560;28;20222;-73
2022/06/16 08:33:51;;;;;;;3.85;2.08;;;21.50;99.30;;;;;;5009652;28;20216;-73
2022/06/16 08:36:22;;;;;;;4.20;2.10;;;21.50;98.90;;;;;;5009262;28;20722;-73
2022/06/16 08:38:49;;;;;;;2.30;2.03;;;21.60;99.00;;;;;;5009039;28;20218;-73
2022/06/16 08:41:31;;;;;;;7.95;2.08;;;21.70;98.90;;;;;;5009160;28;20220;-73
2022/06/16 08:44:10;;;;;;;25.85;3.88;;;21.80;98.80;;;;;;5008975;28;20229;-73
2022/06/16 08:46:40;;;;;;;6.03;2.28;;;21.80;98.80;;;;;;4992662;28;20260;-73
2022/06/16 08:49:27;;;;;;;5.22;2.20;;;21.90;98.80;;;;;;4989684;28;20221;-73
2022/06/16 08:52:05;;;;;;;2.85;2.00;;;21.90;98.80;;;;;;4994648;28;20209;-73
2022/06/16 08:54:46;;;;;;;3.78;2.17;;;22.00;98.50;;;;;;5009030;28;20194;-73
2022/06/16 08:57:22;;;;;;;3.20;2.15;;;22.10;98.00;;;;;;5009141;28;20197;-73
2022/06/16 08:59:53;;;;;;;2.17;1.95;;;22.10;97.70;;;;;;5008581;28;20743;-72
2022/06/16 09:02:26;;;;;;;2.08;1.80;;;22.30;97.80;;;;;;5008975;28;20229;-73
2022/06/16 09:04:59;;;;;;;3.35;1.92;;;22.40;97.70;;;;;;5008672;28;20202;-73
2022/06/16 09:07:50;;;;;;;2.15;2.05;;;22.50;97.40;;;;;;5008410;28;20652;-72
2022/06/16 09:10:25;;;;;;;9.60;2.10;;;22.50;97.10;;;;;;5008607;28;20198;-73
2022/06/16 09:13:43;;;;;;;5.35;2.20;;;22.70;97.30;;;;;;5008615;28;20284;-73
2022/06/16 09:16:39;;;;;;;2.28;2.00;;;22.80;97.20;;;;;;4931768;29;20683;-73
2022/06/16 09:19:37;;;;;;;5.20;2.00;;;22.90;96.90;;;;;;4988737;28;20253;-73
2022/06/16 09:22:20;;;;;;;4.65;2.10;;;22.80;97.00;;;;;;4995682;28;20226;-73
2022/06/16 09:25:09;;;;;;;3.72;2.17;;;22.90;96.90;;;;;;5008245;28;20204;-73
2022/06/16 09:27:42;;;;;;;10.77;2.90;;;23.00;96.90;;;;;;5008593;28;20556;-73
2022/06/16 09:30:13;;;;;;;16.73;3.10;;;23.10;96.80;;;;;;5008115;28;20205;-73
2022/06/16 09:32:45;;;;;;;5.32;2.42;;;23.10;96.70;;;;;;5008729;28;20208;-73
2022/06/16 09:35:18;;;;;;;5.57;2.17;;;23.20;96.40;;;;;;4993813;28;20218;-73
2022/06/16 09:37:49;;;;;;;5.20;2.38;;;23.20;96.60;;;;;;4989185;28;20199;-73
2022/06/16 09:40:19;;;;;;;3.53;2.50;;;23.30;96.30;;;;;;4996371;28;20205;-73
2022/06/16 09:42:50;;;;;;;5.72;2.50;;;23.30;95.90;;;;;;5008115;28;20686;-73
2022/06/16 09:45:23;;;;;;;2.97;2.55;;;23.30;95.10;;;;;;5002090;28;20251;-73
2022/06/16 09:48:00;;;;;;;2.78;2.17;;;23.30;95.00;;;;;;4991107;28;20199;-73
2022/06/16 09:50:39;;;;;;;9.82;2.58;;;23.30;95.50;;;;;;5008346;28;20201;-73
2022/06/16 09:53:13;;;;;;;4.45;2.55;;;23.30;95.70;;;;;;5007673;28;20197;-73
2022/06/16 09:55:45;;;;;;;4.80;2.10;;;23.40;95.80;;;;;;5008226;28;20204;-73
2022/06/16 09:58:18;;;;;;;16.33;3.10;;;23.40;95.50;;;;;;5008154;28;20205;-73
2022/06/16 10:00:45;;;;;;;4.95;2.22;;;23.50;95.40;;;;;;5007943;28;20198;-73
2022/06/16 10:03:25;;;;;;;8.57;2.45;;;23.60;94.50;;;;;;5007809;28;20233;-73
2022/06/16 10:06:05;;;;;;;2.47;1.88;;;23.70;94.50;;;;;;5008165;28;20233;-73
2022/06/16 10:08:40;;;;;;;2.85;1.88;;;23.90;94.00;;;;;;5008062;28;20197;-73
2022/06/16 10:11:33;;;;;;;10.57;2.42;;;24.00;93.70;;;;;;5008154;28;20197;-73
2022/06/16 10:14:07;;;;;;;7.00;2.13;;;24.00;93.30;;;;;;5007749;28;20205;-73
2022/06/16 10:16:47;;;;;;;5.22;2.00;;;24.10;93.50;;;;;;5008207;28;20197;-73
2022/06/16 10:19:16;;;;;;;2.35;2.15;;;24.10;93.60;;;;;;5011661;28;20648;-73
2022/06/16 10:21:42;;;;;;;2.90;2.05;;;24.20;93.10;;;;;;5012091;28;20209;-73
2022/06/16 10:24:10;;;;;;;2.58;2.20;;;24.30;93.10;;;;;;5011376;28;20274;-73
2022/06/16 10:26:37;;;;;;;2.25;1.83;;;24.40;93.40;;;;;;5012086;28;20241;-73
2022/06/16 10:29:19;;;;;;;2.00;1.90;;;24.40;93.10;;;;;;5011695;28;20731;-73
2022/06/16 10:31:48;;;;;;;9.05;2.20;;;24.60;92.90;;;;;;4994836;28;20240;-73
2022/06/16 10:34:27;;;;;;;4.03;2.10;;;24.80;93.10;;;;;;4992079;28;20300;-73
2022/06/16 10:36:58;;;;;;;4.72;2.30;;;24.90;92.90;;;;;;5003262;28;20205;-73
2022/06/16 10:39:32;;;;;;;4.03;2.38;;;25.00;92.60;;;;;;5011457;28;20637;-73
2022/06/16 10:42:05;;;;;;;2.88;2.03;;;25.00;92.70;;;;;;5011377;28;20816;-73
2022/06/16 10:44:34;;;;;;;4.50;1.88;;;25.00;92.20;;;;;;5011430;28;20237;-73
2022/06/16 10:47:06;;;;;;;4.18;2.15;;;24.90;91.80;;;;;;4991860;28;20218;-73
2022/06/16 10:49:36;;;;;;;2.63;1.95;;;24.80;92.20;;;;;;4992221;28;20202;-73
2022/06/16 10:52:11;;;;;;;5.20;2.05;;;24.90;92.40;;;;;;4991807;28;20202;-73
2022/06/16 10:54:45;;;;;;;3.05;1.92;;;25.00;92.60;;;;;;4991899;28;20194;-73
2022/06/16 10:57:17;;;;;;;51.25;6.22;;;24.90;92.20;;;;;;5004302;28;20209;-73
2022/06/16 10:59:49;;;;;;;12.95;2.50;;;24.90;92.40;;;;;;5011199;28;20296;-73
2022/06/16 11:02:22;;;;;;;3.35;2.00;;;24.90;92.00;;;;;;5011354;28;20601;-73
2022/06/16 11:04:57;;;;;;;4.93;2.30;;;24.90;91.50;;;;;;5011617;28;20201;-73
2022/06/16 11:07:27;;;;;;;2.35;2.15;;;25.00;91.60;;;;;;5010966;28;20205;-73
2022/06/16 11:10:02;;;;;;;6.18;2.20;;;25.10;91.70;;;;;;5010800;28;20682;-73
2022/06/16 11:12:31;;;;;;;3.80;1.95;;;25.20;92.00;;;;;;5011467;28;20193;-73
2022/06/16 11:15:03;;;;;;;6.07;1.88;;;25.30;91.20;;;;;;5008005;28;20206;-73
2022/06/16 11:17:35;;;;;;;8.93;2.42;;;25.30;90.60;;;;;;4991215;28;20211;-73
2022/06/16 11:20:14;;;;;;;7.07;2.40;;;25.40;90.90;;;;;;4991275;28;20201;-73
2022/06/16 11:22:43;;;;;;;12.98;3.47;;;25.50;91.00;;;;;;5008925;28;20229;-73
2022/06/16 11:25:26;;;;;;;2.97;2.03;;;25.60;91.20;;;;;;5010644;28;20210;-73
2022/06/16 11:28:04;;;;;;;3.45;1.75;;;25.70;90.80;;;;;;5010303;28;20239;-73
2022/06/16 11:30:35;;;;;;;2.63;2.15;;;25.80;90.70;;;;;;5009813;28;20786;-73
2022/06/16 11:33:03;;;;;;;3.08;1.90;;;25.80;90.40;;;;;;5010575;28;20201;-73
2022/06/16 11:35:39;;;;;;;2.92;2.10;;;25.90;90.20;;;;;;5010711;28;20364;-73
2022/06/16 11:38:17;;;;;;;3.58;2.00;;;26.10;90.40;;;;;;5010044;28;20683;-73
2022/06/16 11:40:50;;;;;;;3.30;1.90;;;26.20;90.60;;;;;;5010563;28;20204;-73
2022/06/16 11:43:39;;;;;;;4.38;1.90;;;26.40;88.90;;;;;;5010306;28;20241;-73
2022/06/16 11:46:26;;;;;;;2.33;1.80;;;26.40;88.60;;;;;;4997564;28;20301;-73
2022/06/16 11:49:06;;;;;;;2.45;1.65;;;26.50;89.40;;;;;;4991159;28;20234;-73
2022/06/16 11:51:39;;;;;;;6.47;1.98;;;26.60;89.40;;;;;;4990733;28;20194;-73
2022/06/16 11:54:20;;;;;;;3.47;1.90;;;26.70;89.00;;;;;;5007656;28;20714;-73
2022/06/16 11:56:52;;;;;;;7.07;2.00;;;26.80;88.60;;;;;;5010488;28;20203;-73
2022/06/16 11:59:33;;;;;;;7.78;2.60;;;27.00;87.00;;;;;;5010224;28;20540;-73
2022/06/16 12:02:15;;;;;;;4.97;2.22;;;27.00;88.20;;;;;;5010007;28;20206;-73
2022/06/16 12:05:03;;;;;;;4.45;2.20;;;27.00;87.50;;;;;;5009864;28;20664;-73
2022/06/16 12:07:47;;;;;;;27.38;3.35;;;27.10;87.10;;;;;;5010242;28;20201;-73
2022/06/16 12:10:23;;;;;;;3.80;2.10;;;27.00;87.00;;;;;;5009820;28;20193;-73
2022/06/16 12:12:57;;;;;;;4.88;1.98;;;26.90;87.30;;;;;;5010399;28;20204;-73
2022/06/16 12:15:33;;;;;;;4.85;2.10;;;26.90;87.70;;;;;;5003038;28;20220;-74
2022/06/16 12:18:13;;;;;;;17.00;2.60;;;27.10;87.30;;;;;;5000675;28;20216;-73
2022/06/16 12:20:50;;;;;;;4.05;1.92;;;27.30;86.30;;;;;;5010307;28;20714;-73
2022/06/16 12:23:26;;;;;;;6.07;2.50;;;27.40;85.30;;;;;;5009380;28;20324;-73
2022/06/16 12:26:00;;;;;;;3.20;1.92;;;27.50;84.40;;;;;;5009696;28;20200;-73
2022/06/16 12:28:31;;;;;;;3.33;1.80;;;27.70;85.10;;;;;;5006529;28;20194;-73
2022/06/16 12:31:04;;;;;;;4.10;1.90;;;27.90;85.50;;;;;;4990186;28;20724;-73
2022/06/16 12:33:40;;;;;;;3.20;1.98;;;27.90;83.50;;;;;;4990186;28;20214;-74
2022/06/16 12:36:31;;;;;;;16.95;2.83;;;28.10;82.50;;;;;;4989990;28;20542;-73
2022/06/16 12:39:05;;;;;;;17.92;3.17;;;28.20;83.00;;;;;;4989308;28;20214;-73
2022/06/16 12:41:36;;;;;;;4.35;1.73;;;28.40;82.30;;;;;;4989795;28;20206;-73
2022/06/16 12:44:10;;;;;;;6.70;2.45;;;28.40;82.00;;;;;;4989265;28;20360;-74
2022/06/16 12:46:41;;;;;;;3.47;1.95;;;28.40;81.80;;;;;;4989507;28;20232;-73
2022/06/16 12:49:13;;;;;;;3.45;1.98;;;28.30;81.00;;;;;;4997434;28;20649;-73
2022/06/16 12:51:44;;;;;;;4.63;2.00;;;28.00;81.40;;;;;;5009401;28;20198;-73
2022/06/16 12:54:17;;;;;;;2.17;1.98;;;27.90;82.20;;;;;;5009042;28;20198;-73
2022/06/16 12:56:48;;;;;;;4.85;2.40;;;28.10;83.00;;;;;;5009154;28;20224;-73
2022/06/16 12:59:21;;;;;;;15.48;3.10;;;28.20;82.40;;;;;;5009089;28;20213;-73
2022/06/16 13:01:53;;;;;;;3.13;1.85;;;28.40;82.90;;;;;;5009383;28;20280;-73
2022/06/16 13:04:24;;;;;;;3.78;1.63;;;28.70;80.90;;;;;;5008531;28;20225;-73
2022/06/16 13:06:52;;;;;;;2.10;1.88;;;28.90;81.50;;;;;;5008734;28;20204;-71
2022/06/16 13:09:20;;;;;;;2.10;2.00;;;29.00;80.20;;;;;;5009103;28;20216;-70
2022/06/16 13:11:53;;;;;;;2.08;1.88;;;29.00;79.80;;;;;;5008533;28;20193;-74
2022/06/16 13:14:23;;;;;;;2.25;1.77;;;29.10;79.60;;;;;;4997499;28;20206;-73
2022/06/16 13:16:53;;;;;;;3.00;2.30;;;29.10;78.70;;;;;;4989262;28;20586;-74
2022/06/16 13:19:24;;;;;;;4.53;2.30;;;29.20;79.20;;;;;;4999482;28;20221;-74
2022/06/16 13:21:54;;;;;;;3.95;2.00;;;29.10;78.40;;;;;;5008933;28;20209;-71
2022/06/16 13:24:34;;;;;;;4.00;2.00;;;28.90;77.90;;;;;;5008406;28;20313;-73
2022/06/16 13:27:07;;;;;;;3.33;2.08;;;28.80;78.50;;;;;;5008669;28;20208;-73
2022/06/16 13:29:43;;;;;;;2.13;1.95;;;28.20;79.40;;;;;;5008472;28;20205;-73